createdAt,value
2022-10-05T00:00:43.805Z,101424.41
2022-10-05T00:03:11.705Z,101384.97
2022-10-05T00:05:38.620Z,101419.19
2022-10-05T00:08:14.113Z,101417.59
2022-10-05T00:10:42.338Z,101405.47
2022-10-05T00:13:13.984Z,101400.41
2022-10-05T00:15:40.531Z,101405.63
2022-10-05T00:18:21.341Z,101397.66
2022-10-05T00:20:48.699Z,101397.00
2022-10-05T00:23:21.470Z,101400.38
2022-10-05T00:25:47.841Z,101396.88
2022-10-05T00:28:22.915Z,101348.00
2022-10-05T00:30:49.382Z,101351.31
2022-10-05T00:33:15.779Z,101394.75
2022-10-05T00:35:42.126Z,101392.09
2022-10-05T00:38:08.441Z,101333.63
2022-10-05T00:40:56.952Z,101383.88
2022-10-05T00:43:42.037Z,101381.16
2022-10-05T00:46:21.252Z,101304.19
2022-10-05T00:49:10.090Z,101375.75
2022-10-05T00:51:38.612Z,101297.31
2022-10-05T00:54:41.423Z,101382.63
2022-10-05T00:57:17.318Z,101380.13
2022-10-05T01:00:07.929Z,101381.09
2022-10-05T01:02:50.140Z,101380.22
2022-10-05T01:11:58.063Z,101382.34
2022-10-05T01:14:51.621Z,101381.53
2022-10-05T01:17:53.194Z,101382.44
2022-10-05T01:20:45.712Z,101385.19
2022-10-05T01:23:48.242Z,101373.81
2022-10-05T01:26:27.474Z,101373.03
2022-10-05T01:29:25.326Z,101369.63
2022-10-05T01:32:27.581Z,101373.97
2022-10-05T01:35:05.775Z,101368.03
2022-10-05T01:37:54.525Z,101371.53
2022-10-05T01:40:34.971Z,101362.75
2022-10-05T01:43:39.422Z,101352.31
2022-10-05T01:46:46.103Z,101346.22
2022-10-05T01:49:33.318Z,101354.06
2022-10-05T01:52:40.269Z,101349.75
2022-10-05T01:55:41.795Z,101346.34
2022-10-05T01:58:50.949Z,101337.66
2022-10-05T02:05:06.991Z,101340.50
2022-10-05T02:07:59.460Z,101335.28
2022-10-05T02:10:37.777Z,101163.75
2022-10-05T02:13:28.465Z,101266.41
2022-10-05T02:16:02.211Z,101290.38
2022-10-05T02:18:34.951Z,101331.25
2022-10-05T02:21:17.537Z,101321.50
2022-10-05T02:23:50.739Z,101334.56
2022-10-05T02:26:32.988Z,101156.03
2022-10-05T02:29:12.913Z,101290.88
2022-10-05T02:31:43.974Z,101321.56
2022-10-05T02:34:33.417Z,101332.19
2022-10-05T02:37:28.766Z,101324.31
2022-10-05T02:44:18.497Z,101322.53
2022-10-05T02:47:05.025Z,101318.16
2022-10-05T02:49:55.530Z,101316.31
2022-10-05T02:52:41.372Z,101311.75
2022-10-05T02:55:28.895Z,101269.63
2022-10-05T03:04:32.377Z,101298.03
2022-10-05T03:07:19.387Z,101225.50
2022-10-05T03:10:00.784Z,101209.16
2022-10-05T03:12:42.481Z,101290.94
2022-10-05T03:15:19.026Z,101287.44
2022-10-05T03:18:12.479Z,101244.66
2022-10-05T03:21:14.311Z,101285.44
2022-10-05T03:24:17.117Z,101292.41
2022-10-05T03:26:53.504Z,101281.06
2022-10-05T03:29:44.386Z,101282.78
2022-10-05T03:32:23.897Z,101274.91
2022-10-05T03:38:20.466Z,101281.13
2022-10-05T03:40:52.226Z,101275.88
2022-10-05T03:43:54.042Z,101274.84
2022-10-05T03:47:02.296Z,101269.53
2022-10-05T03:49:46.429Z,101264.34
2022-10-05T03:52:23.450Z,101214.88
2022-10-05T03:55:34.380Z,101091.53
2022-10-05T03:58:41.589Z,101188.19
2022-10-05T04:01:17.335Z,101255.66
2022-10-05T04:04:10.512Z,101249.88
2022-10-05T04:06:49.763Z,101249.88
2022-10-05T04:09:32.984Z,101239.41
2022-10-05T04:12:35.599Z,101239.00
2022-10-05T04:15:34.926Z,101248.19
2022-10-05T04:18:06.930Z,101136.28
2022-10-05T04:20:54.727Z,101198.16
2022-10-05T04:23:53.847Z,101179.00
2022-10-05T04:26:41.336Z,101242.03
2022-10-05T04:29:52.116Z,101239.19
2022-10-05T04:33:39.482Z,101245.03
2022-10-05T04:35:48.271Z,101240.38
2022-10-05T04:38:47.287Z,101234.13
2022-10-05T04:41:51.541Z,101242.69
2022-10-05T04:44:40.406Z,101243.47
2022-10-05T04:47:26.341Z,101242.69
2022-10-05T04:50:26.892Z,101234.88
2022-10-05T04:53:10.691Z,101246.34
2022-10-05T04:56:15.537Z,101240.38
2022-10-05T04:58:48.283Z,101242.16
2022-10-05T05:01:36.477Z,101251.72
2022-10-05T05:04:27.406Z,101245.56
2022-10-05T05:07:24.148Z,101245.47
2022-10-05T05:10:21.633Z,101248.00
2022-10-05T05:13:35.157Z,101243.59
2022-10-05T05:16:21.157Z,101242.81
2022-10-05T05:19:26.791Z,101240.13
2022-10-05T05:22:18.005Z,101241.97
2022-10-05T05:25:42.958Z,101247.06
2022-10-05T05:28:33.222Z,101247.06
2022-10-05T05:31:28.030Z,101250.47
2022-10-05T05:34:43.067Z,101246.00
2022-10-05T05:37:47.699Z,101246.78
2022-10-05T05:40:27.027Z,101240.56
2022-10-05T05:47:02.924Z,101243.72
2022-10-05T05:49:39.296Z,101243.56
2022-10-05T05:52:30.567Z,101246.00
2022-10-05T05:55:08.937Z,101215.38
2022-10-05T05:58:15.590Z,101245.56
2022-10-05T06:00:49.084Z,101206.09
2022-10-05T06:03:25.980Z,101171.81
2022-10-05T06:06:00.597Z,101249.28
2022-10-05T06:08:50.955Z,101217.47
2022-10-05T06:11:43.331Z,101247.94
2022-10-05T06:14:19.587Z,101210.28
2022-10-05T06:16:55.276Z,101253.41
2022-10-05T06:19:24.512Z,101257.53
2022-10-05T06:22:11.209Z,101247.56
2022-10-05T06:24:56.221Z,101251.63
2022-10-05T06:27:59.805Z,101247.56
2022-10-05T06:30:36.917Z,101252.81
2022-10-05T06:33:21.534Z,101248.19
2022-10-05T06:36:07.856Z,101250.50
2022-10-05T06:38:52.743Z,101085.81
2022-10-05T06:41:47.355Z,101246.47
2022-10-05T06:44:25.859Z,101250.50
2022-10-05T06:47:22.805Z,101250.41
2022-10-05T06:50:27.612Z,101206.75
2022-10-05T06:53:19.904Z,101210.00
2022-10-05T06:56:23.983Z,101247.75
2022-10-05T06:59:04.688Z,101206.78
2022-10-05T07:01:54.894Z,101248.91
2022-10-05T07:04:42.844Z,101243.31
2022-10-05T07:07:09.098Z,101244.88
2022-10-05T07:09:56.398Z,101249.91
2022-10-05T07:12:46.160Z,101247.72
2022-10-05T07:15:40.331Z,101242.13
2022-10-05T07:18:28.058Z,101245.97
2022-10-05T07:21:22.314Z,101242.38
2022-10-05T07:23:53.999Z,101235.94
2022-10-05T07:26:42.575Z,101236.44
2022-10-05T07:29:18.166Z,101244.09
2022-10-05T07:32:06.295Z,101244.03
2022-10-05T07:35:09.914Z,101249.03
2022-10-05T07:37:54.608Z,101216.47
2022-10-05T07:40:40.515Z,101249.56
2022-10-05T07:43:21.845Z,101245.91
2022-10-05T07:45:54.801Z,101250.16
2022-10-05T07:48:48.542Z,101250.72
2022-10-05T07:51:28.930Z,101245.19
2022-10-05T07:54:13.018Z,101098.97
2022-10-05T07:56:50.040Z,101256.91
2022-10-05T07:59:28.632Z,101215.84
2022-10-05T08:02:13.288Z,101247.78
2022-10-05T08:05:11.957Z,101251.41
2022-10-05T08:07:39.269Z,101212.28
2022-10-05T08:10:30.099Z,101249.13
2022-10-05T08:13:20.024Z,101234.66
2022-10-05T08:15:51.926Z,101242.25
2022-10-05T08:18:59.181Z,101243.34
2022-10-05T08:21:36.338Z,101222.94
2022-10-05T08:24:30.206Z,101240.41
2022-10-05T08:27:20.075Z,101242.53
2022-10-05T08:29:58.612Z,101235.44
2022-10-05T08:32:29.727Z,101214.88
2022-10-05T08:35:04.225Z,101233.44
2022-10-05T08:37:37.332Z,101238.53
2022-10-05T08:40:18.822Z,101238.69
2022-10-05T08:43:22.966Z,101204.50
2022-10-05T08:46:03.932Z,101231.91
2022-10-05T08:48:36.035Z,101236.25
2022-10-05T08:51:24.356Z,101232.69
2022-10-05T08:54:24.605Z,101230.69
2022-10-05T08:57:15.032Z,101186.22
2022-10-05T09:00:03.180Z,101228.47
2022-10-05T09:03:08.887Z,101231.47
2022-10-05T09:05:58.765Z,101227.22
2022-10-05T09:08:51.237Z,101226.06
2022-10-05T09:11:37.314Z,101227.47
2022-10-05T09:14:39.246Z,101229.94
2022-10-05T09:17:42.903Z,101219.34
2022-10-05T09:20:52.032Z,101179.06
2022-10-05T09:23:39.037Z,101195.44
2022-10-05T09:26:11.397Z,101218.41
2022-10-05T09:29:02.056Z,101167.03
2022-10-05T09:31:34.249Z,101212.50
2022-10-05T09:34:15.385Z,101221.53
2022-10-05T09:36:48.111Z,101216.50
2022-10-05T09:39:20.444Z,101221.53
2022-10-05T09:42:24.129Z,101216.41
2022-10-05T09:45:29.655Z,101216.53
2022-10-05T09:48:28.268Z,101171.81
2022-10-05T09:51:07.546Z,101160.69
2022-10-05T09:53:42.915Z,101210.28
2022-10-05T09:59:13.653Z,101214.22
2022-10-05T10:02:22.985Z,101192.66
2022-10-05T10:05:07.713Z,101203.22
2022-10-05T10:07:56.366Z,101178.13
2022-10-05T10:11:03.993Z,101202.34
2022-10-05T10:14:00.119Z,101203.97
2022-10-05T10:16:56.974Z,101210.41
2022-10-05T10:19:45.139Z,101207.28
2022-10-05T10:22:30.039Z,101201.97
2022-10-05T10:25:16.539Z,101197.13
2022-10-05T10:27:54.154Z,101180.34
2022-10-05T10:31:04.683Z,101143.13
2022-10-05T10:33:53.713Z,101201.31
2022-10-05T10:37:03.597Z,101194.97
2022-10-05T10:39:33.223Z,101198.00
2022-10-05T10:42:26.852Z,101185.97
2022-10-05T10:45:31.608Z,101134.47
2022-10-05T10:48:08.970Z,101191.91
2022-10-05T10:51:03.039Z,101197.63
2022-10-05T10:53:45.977Z,101153.38
2022-10-05T10:56:46.197Z,101181.34
2022-10-05T10:59:52.712Z,101118.50
2022-10-05T11:02:28.771Z,101131.91
2022-10-05T11:05:32.766Z,101151.66
2022-10-05T11:08:20.441Z,101150.47
2022-10-05T11:11:17.831Z,101147.63
2022-10-05T11:14:02.630Z,101142.88
2022-10-05T11:16:37.960Z,101130.91
2022-10-05T11:19:35.197Z,101126.22
2022-10-05T11:22:51.648Z,101107.16
2022-10-05T11:25:36.327Z,101125.91
2022-10-05T11:28:22.488Z,101125.19
2022-10-05T11:31:28.199Z,101122.28
2022-10-05T11:34:06.714Z,101112.97
2022-10-05T11:36:51.714Z,101106.56
2022-10-05T11:39:20.972Z,101099.91
2022-10-05T11:42:25.416Z,101095.53
2022-10-05T11:45:22.987Z,101031.25
2022-10-05T11:48:15.707Z,101078.91
2022-10-05T11:51:20.765Z,101068.22
2022-10-05T11:54:06.593Z,100973.66
2022-10-05T11:56:38.530Z,101052.22
2022-10-05T11:59:26.589Z,101050.56
2022-10-05T12:02:04.187Z,101005.88
2022-10-05T12:04:45.824Z,101020.75
2022-10-05T12:07:34.866Z,101039.59
2022-10-05T12:10:31.011Z,100996.34
2022-10-05T12:13:03.148Z,101024.84
2022-10-05T12:15:54.415Z,100975.38
2022-10-05T12:18:53.538Z,101022.88
2022-10-05T12:21:43.075Z,101018.63
2022-10-05T12:24:21.259Z,101012.47
2022-10-05T12:26:58.517Z,100977.34
2022-10-05T12:29:35.246Z,100989.34
2022-10-05T12:32:17.396Z,100989.44
2022-10-05T12:35:01.913Z,100948.75
2022-10-05T12:37:31.435Z,100984.22
2022-10-05T12:40:35.408Z,100974.50
2022-10-05T12:43:10.612Z,100974.47
2022-10-05T12:45:58.513Z,100972.50
2022-10-05T12:48:43.536Z,100944.53
2022-10-05T12:51:20.061Z,100968.75
2022-10-05T12:54:24.547Z,100969.09
2022-10-05T12:56:56.865Z,100970.28
2022-10-05T12:59:38.879Z,100968.19
2022-10-05T13:02:14.098Z,100956.06
2022-10-05T13:04:59.545Z,100949.06
2022-10-05T13:07:59.856Z,100953.88
2022-10-05T13:10:36.091Z,100916.97
2022-10-05T13:13:10.779Z,100952.72
2022-10-05T13:16:21.785Z,100893.00
2022-10-05T13:19:14.111Z,100935.53
2022-10-05T13:21:46.089Z,100922.28
2022-10-05T13:24:22.910Z,100888.19
2022-10-05T13:26:58.315Z,100917.63
2022-10-05T13:29:56.409Z,100909.59
2022-10-05T13:32:34.035Z,100901.00
2022-10-05T13:35:23.640Z,100877.34
2022-10-05T13:38:13.318Z,100884.94
2022-10-05T13:41:00.225Z,100907.13
2022-10-05T13:43:33.325Z,100907.13
2022-10-05T13:46:21.742Z,100886.78
2022-10-05T13:48:59.879Z,100898.56
2022-10-05T13:51:47.534Z,100915.41
2022-10-05T13:54:22.836Z,100872.88
2022-10-05T13:56:56.659Z,100886.41
2022-10-05T13:59:38.471Z,100901.66
2022-10-05T14:02:09.749Z,100908.78
2022-10-05T14:05:01.024Z,100890.41
2022-10-05T14:07:36.357Z,100909.59
2022-10-05T14:10:10.282Z,100900.00
2022-10-05T14:12:40.790Z,100894.44
2022-10-05T14:15:22.497Z,100905.88
2022-10-05T14:17:51.770Z,100784.56
2022-10-05T14:20:31.295Z,100912.25
2022-10-05T14:23:00.948Z,100902.41
2022-10-05T14:25:30.194Z,100869.13
2022-10-05T14:28:08.814Z,100913.38
2022-10-05T14:30:35.385Z,100919.81
2022-10-05T14:33:04.699Z,100909.41
2022-10-05T14:35:54.159Z,100915.13
2022-10-05T14:38:29.294Z,100911.84
2022-10-05T14:41:14.531Z,100918.34
2022-10-05T14:43:50.621Z,100902.25
2022-10-05T14:46:18.142Z,100923.44
2022-10-05T14:48:47.579Z,100924.41
2022-10-05T14:51:31.842Z,100870.00
2022-10-05T14:54:00.482Z,100850.38
2022-10-05T14:56:49.596Z,100901.31
2022-10-05T14:59:24.865Z,100921.19
2022-10-05T15:01:53.893Z,100781.81
2022-10-05T15:04:34.318Z,100951.00
2022-10-05T15:07:24.948Z,100952.19
2022-10-05T15:10:35.174Z,100949.94
2022-10-05T15:13:24.016Z,100960.06
2022-10-05T15:16:12.181Z,100965.41
2022-10-05T15:18:48.888Z,100921.31
2022-10-05T15:21:20.930Z,100961.31
2022-10-05T15:23:54.356Z,100918.38
2022-10-05T15:26:26.598Z,100958.22
2022-10-05T15:29:14.396Z,100958.53
2022-10-05T15:31:52.276Z,100971.44
2022-10-05T15:34:33.672Z,100971.72
2022-10-05T15:37:10.175Z,100972.72
2022-10-05T15:39:59.198Z,100944.25
2022-10-05T15:42:43.135Z,100968.53
2022-10-05T15:45:19.541Z,100999.84
2022-10-05T15:47:52.899Z,100954.63
2022-10-05T15:50:26.618Z,101011.22
2022-10-05T15:52:56.079Z,101016.13
2022-10-05T15:55:35.514Z,101016.00
2022-10-05T15:58:27.778Z,101021.88
2022-10-05T16:01:28.962Z,101028.03
2022-10-05T16:04:10.830Z,101034.81
2022-10-05T16:07:09.922Z,101048.53
2022-10-05T16:09:45.182Z,101055.41
2022-10-05T16:12:29.005Z,101058.97
2022-10-05T16:15:16.122Z,101059.34
2022-10-05T16:18:16.538Z,101013.53
2022-10-05T16:21:12.998Z,101076.25
2022-10-05T16:23:58.119Z,101061.22
2022-10-05T16:26:24.368Z,101089.78
2022-10-05T16:28:59.436Z,101093.47
2022-10-05T16:31:41.230Z,101102.28
2022-10-05T16:34:32.241Z,101014.34
2022-10-05T16:37:20.293Z,101103.81
2022-10-05T16:39:57.558Z,101118.25
2022-10-05T16:42:39.405Z,101084.41
2022-10-05T16:45:44.435Z,101128.03
2022-10-05T16:48:26.623Z,101111.03
2022-10-05T16:50:55.928Z,101150.75
2022-10-05T16:53:34.701Z,101163.72
2022-10-05T16:56:05.944Z,101175.13
2022-10-05T16:58:45.073Z,101179.00
2022-10-05T17:01:16.720Z,101181.03
2022-10-05T17:04:16.320Z,101151.41
2022-10-05T17:07:09.058Z,101205.06
2022-10-05T17:09:45.043Z,101148.69
2022-10-05T17:12:45.991Z,101216.13
2022-10-05T17:15:12.318Z,101218.53
2022-10-05T17:17:48.952Z,101139.47
2022-10-05T17:20:18.231Z,101232.16
2022-10-05T17:23:02.039Z,101238.31
2022-10-05T17:25:52.509Z,101233.69
2022-10-05T17:28:24.465Z,101243.81
2022-10-05T17:31:21.565Z,101243.00
2022-10-05T17:34:00.254Z,101235.69
2022-10-05T17:37:00.570Z,101254.72
2022-10-05T17:39:56.126Z,101257.84
2022-10-05T17:42:34.723Z,101269.88
2022-10-05T17:45:21.300Z,101274.00
2022-10-05T17:48:09.629Z,101125.13
2022-10-05T17:51:08.528Z,101226.91
2022-10-05T17:54:02.690Z,101293.66
2022-10-05T17:56:49.565Z,101311.16
2022-10-05T17:59:57.481Z,101305.56
2022-10-05T18:02:36.708Z,101312.00
2022-10-05T18:05:06.769Z,101312.09
2022-10-05T18:07:37.631Z,101164.88
2022-10-05T18:10:04.599Z,101297.16
2022-10-05T18:12:37.088Z,101298.81
2022-10-05T18:15:03.691Z,101294.50
2022-10-05T18:17:54.758Z,101293.75
2022-10-05T18:20:23.960Z,101289.63
2022-10-05T18:22:52.921Z,101272.88
2022-10-05T18:25:45.790Z,101187.66
2022-10-05T18:28:15.818Z,101299.50
2022-10-05T18:30:58.520Z,101263.50
2022-10-05T18:33:47.665Z,101268.66
2022-10-05T18:36:37.546Z,101306.41
2022-10-05T18:39:36.092Z,101308.41
2022-10-05T18:42:37.614Z,101312.03
2022-10-05T18:45:21.305Z,101299.22
2022-10-05T18:47:54.444Z,101312.78
2022-10-05T18:50:39.429Z,101314.56
2022-10-05T18:53:20.490Z,101249.59
2022-10-05T18:55:53.284Z,101290.84
2022-10-05T18:58:28.746Z,101296.16
2022-10-05T19:01:20.487Z,101324.06
2022-10-05T19:04:26.952Z,101279.94
2022-10-05T19:07:19.498Z,101314.00
2022-10-05T19:09:54.937Z,101317.38
2022-10-05T19:12:41.632Z,101327.56
2022-10-05T19:15:39.199Z,101326.41
2022-10-05T19:18:14.746Z,101196.69
2022-10-05T19:20:53.261Z,101326.28
2022-10-05T19:23:46.751Z,101338.47
2022-10-05T19:26:34.201Z,101347.50
2022-10-05T19:29:38.793Z,101306.03
2022-10-05T19:32:18.479Z,101348.78
2022-10-05T19:34:58.923Z,101359.78
2022-10-05T19:37:42.398Z,101278.44
2022-10-05T19:40:24.302Z,101352.47
2022-10-05T19:43:08.068Z,101352.56
2022-10-05T19:45:54.285Z,101323.13
2022-10-05T19:48:47.378Z,101270.94
2022-10-05T19:51:16.644Z,101360.25
2022-10-05T19:53:47.132Z,101318.00
2022-10-05T19:56:24.632Z,101348.53
2022-10-05T19:58:57.369Z,101351.75
2022-10-05T20:01:31.438Z,101357.16
2022-10-05T20:03:58.428Z,101359.78
2022-10-05T20:06:26.746Z,101307.31
2022-10-05T20:09:00.240Z,101334.66
2022-10-05T20:11:28.558Z,101289.38
2022-10-05T20:14:01.071Z,101364.66
2022-10-05T20:16:47.658Z,101368.69
2022-10-05T20:19:45.821Z,101368.28
2022-10-05T20:23:10.413Z,101347.69
2022-10-05T20:25:36.988Z,101300.84
2022-10-05T20:28:03.431Z,101360.78
2022-10-05T20:30:33.888Z,101208.69
2022-10-05T20:33:01.509Z,101312.72
2022-10-05T20:35:30.564Z,101399.06
2022-10-05T20:38:02.081Z,101399.69
2022-10-05T20:40:30.051Z,101315.56
2022-10-05T20:42:57.616Z,101407.03
2022-10-05T20:45:24.399Z,101383.03
2022-10-05T20:47:53.644Z,101330.97
2022-10-05T20:50:21.125Z,101396.72
2022-10-05T20:52:47.459Z,101350.69
2022-10-05T20:55:13.954Z,101248.66
2022-10-05T20:57:43.326Z,101430.06
2022-10-05T21:00:13.493Z,101428.44
2022-10-05T21:02:39.933Z,101385.69
2022-10-05T21:05:07.647Z,101424.63
2022-10-05T21:07:37.208Z,101367.25
2022-10-05T21:10:03.967Z,101442.03
2022-10-05T21:12:30.689Z,101404.69
2022-10-05T21:14:57.442Z,101444.88
2022-10-05T21:17:23.816Z,101443.19
2022-10-05T21:19:50.171Z,101445.13
2022-10-05T21:22:16.680Z,101385.91
2022-10-05T21:24:43.048Z,101367.34
2022-10-05T21:27:10.061Z,101404.16
2022-10-05T21:29:37.008Z,101409.03
2022-10-05T21:32:08.251Z,101356.22
2022-10-05T21:34:35.029Z,101447.44
2022-10-05T21:37:01.361Z,101309.78
2022-10-05T21:39:27.805Z,101453.72
2022-10-05T21:41:54.206Z,101447.25
2022-10-05T21:44:20.578Z,101445.00
2022-10-05T21:46:48.163Z,101430.38
2022-10-05T21:49:17.532Z,101418.91
2022-10-05T21:51:47.445Z,101393.25
2022-10-05T21:54:24.926Z,101451.63
2022-10-05T21:57:04.338Z,101524.28
2022-10-05T21:59:44.112Z,101550.06
2022-10-05T22:02:16.105Z,101558.41
2022-10-05T22:04:59.620Z,101559.53
2022-10-05T22:07:32.868Z,101525.19
2022-10-05T22:10:14.652Z,101590.34
2022-10-05T22:13:13.761Z,101592.03
2022-10-05T22:15:54.717Z,101603.50
2022-10-05T22:18:43.934Z,101612.56
2022-10-05T22:21:27.132Z,101591.03
2022-10-05T22:23:55.987Z,101405.69
2022-10-05T22:26:35.061Z,101602.63
2022-10-05T22:29:08.909Z,101607.66
2022-10-05T22:31:55.621Z,101619.94
2022-10-05T22:34:31.919Z,101574.50
2022-10-05T22:37:09.437Z,101640.47
2022-10-05T22:39:39.331Z,101632.63
2022-10-05T22:42:21.351Z,101111.50
2022-10-05T22:45:03.474Z,101496.81
2022-10-05T22:47:36.593Z,101589.22
2022-10-05T22:50:09.589Z,101447.34
2022-10-05T22:53:04.409Z,101511.56
2022-10-05T22:55:31.082Z,101646.03
2022-10-05T22:57:57.561Z,101598.13
2022-10-05T23:00:57.545Z,101663.50
2022-10-05T23:03:27.427Z,101588.38
2022-10-05T23:06:13.786Z,101663.72
2022-10-05T23:08:54.561Z,101687.31
2022-10-05T23:11:27.718Z,101680.41
2022-10-05T23:14:03.164Z,101676.66
2022-10-05T23:16:47.544Z,101701.72
2022-10-05T23:19:21.697Z,101483.28
2022-10-05T23:21:49.136Z,101655.38
2022-10-05T23:24:28.105Z,101699.69
2022-10-05T23:27:01.285Z,101596.16
2022-10-05T23:29:44.148Z,101517.56
2022-10-05T23:32:17.770Z,101570.50
2022-10-05T23:34:59.751Z,101721.56
2022-10-05T23:37:40.083Z,101777.78
2022-10-05T23:40:37.613Z,101784.56
2022-10-05T23:43:19.018Z,101779.50
2022-10-05T23:45:58.704Z,101730.88
2022-10-05T23:51:39.298Z,101428.13
2022-10-05T23:51:46.894Z,101729.00
2022-10-05T23:54:17.211Z,101787.94
2022-10-05T23:57:14.779Z,101802.56
2022-10-05T23:59:48.527Z,101783.97
